sensor_id;sensor_type;location;lat;lon;timestamp;P1;durP1;ratioP1;P2;durP2;ratioP2
72524;SDS011;60547;48.502;8.996;2023-02-12T00:00:38;23.30;;;13.82;;
72524;SDS011;60547;48.502;8.996;2023-02-12T00:03:04;26.00;;;12.98;;
72524;SDS011;60547;48.502;8.996;2023-02-12T00:05:30;24.92;;;14.25;;
72524;SDS011;60547;48.502;8.996;2023-02-12T00:07:56;29.42;;;15.25;;
72524;SDS011;60547;48.502;8.996;2023-02-12T00:10:22;30.95;;;15.07;;
72524;SDS011;60547;48.502;8.996;2023-02-12T00:12:47;30.30;;;16.90;;
72524;SDS011;60547;48.502;8.996;2023-02-12T00:15:13;26.88;;;15.10;;
72524;SDS011;60547;48.502;8.996;2023-02-12T00:17:39;23.75;;;13.93;;
72524;SDS011;60547;48.502;8.996;2023-02-12T00:20:04;25.55;;;13.40;;
72524;SDS011;60547;48.502;8.996;2023-02-12T00:22:30;24.30;;;13.35;;
72524;SDS011;60547;48.502;8.996;2023-02-12T00:24:56;23.95;;;11.90;;
72524;SDS011;60547;48.502;8.996;2023-02-12T00:27:22;23.45;;;12.43;;
72524;SDS011;60547;48.502;8.996;2023-02-12T00:29:48;25.63;;;13.48;;
72524;SDS011;60547;48.502;8.996;2023-02-12T00:32:13;22.65;;;12.15;;
72524;SDS011;60547;48.502;8.996;2023-02-12T00:34:43;24.50;;;13.30;;
72524;SDS011;60547;48.502;8.996;2023-02-12T00:37:10;21.88;;;13.68;;
72524;SDS011;60547;48.502;8.996;2023-02-12T00:39:36;22.88;;;13.55;;
72524;SDS011;60547;48.502;8.996;2023-02-12T00:42:02;22.35;;;14.82;;
72524;SDS011;60547;48.502;8.996;2023-02-12T00:44:28;23.85;;;14.23;;
72524;SDS011;60547;48.502;8.996;2023-02-12T00:46:54;24.27;;;13.23;;
72524;SDS011;60547;48.502;8.996;2023-02-12T00:49:19;21.33;;;12.30;;
72524;SDS011;60547;48.502;8.996;2023-02-12T00:51:45;23.88;;;13.70;;
72524;SDS011;60547;48.502;8.996;2023-02-12T00:54:11;25.70;;;15.23;;
72524;SDS011;60547;48.502;8.996;2023-02-12T00:56:36;23.95;;;14.35;;
72524;SDS011;60547;48.502;8.996;2023-02-12T00:59:02;21.90;;;13.65;;
72524;SDS011;60547;48.502;8.996;2023-02-12T01:01:27;23.23;;;13.18;;
72524;SDS011;60547;48.502;8.996;2023-02-12T01:03:52;24.60;;;14.00;;
72524;SDS011;60547;48.502;8.996;2023-02-12T01:06:18;20.67;;;12.40;;
72524;SDS011;60547;48.502;8.996;2023-02-12T01:08:43;22.27;;;14.25;;
72524;SDS011;60547;48.502;8.996;2023-02-12T01:11:10;21.23;;;12.85;;
72524;SDS011;60547;48.502;8.996;2023-02-12T01:13:37;21.65;;;13.30;;
72524;SDS011;60547;48.502;8.996;2023-02-12T01:18:30;22.48;;;13.60;;
72524;SDS011;60547;48.502;8.996;2023-02-12T01:20:56;23.55;;;13.80;;
72524;SDS011;60547;48.502;8.996;2023-02-12T01:23:23;23.77;;;13.80;;
72524;SDS011;60547;48.502;8.996;2023-02-12T01:25:48;22.42;;;12.77;;
72524;SDS011;60547;48.502;8.996;2023-02-12T01:28:14;20.98;;;13.15;;
72524;SDS011;60547;48.502;8.996;2023-02-12T01:30:39;20.05;;;12.57;;
72524;SDS011;60547;48.502;8.996;2023-02-12T01:33:05;21.00;;;12.68;;
72524;SDS011;60547;48.502;8.996;2023-02-12T01:35:30;22.90;;;13.88;;
72524;SDS011;60547;48.502;8.996;2023-02-12T01:37:56;21.08;;;12.73;;
72524;SDS011;60547;48.502;8.996;2023-02-12T01:40:23;23.42;;;14.18;;
72524;SDS011;60547;48.502;8.996;2023-02-12T01:42:48;21.98;;;12.05;;
72524;SDS011;60547;48.502;8.996;2023-02-12T01:47:39;19.17;;;12.85;;
72524;SDS011;60547;48.502;8.996;2023-02-12T01:50:07;22.23;;;12.90;;
72524;SDS011;60547;48.502;8.996;2023-02-12T01:52:36;22.70;;;13.80;;
72524;SDS011;60547;48.502;8.996;2023-02-12T01:55:06;22.17;;;12.57;;
72524;SDS011;60547;48.502;8.996;2023-02-12T01:57:35;22.58;;;12.38;;
72524;SDS011;60547;48.502;8.996;2023-02-12T02:00:06;22.45;;;11.90;;
72524;SDS011;60547;48.502;8.996;2023-02-12T02:02:34;20.50;;;12.32;;
72524;SDS011;60547;48.502;8.996;2023-02-12T02:05:02;21.50;;;13.07;;
72524;SDS011;60547;48.502;8.996;2023-02-12T02:07:28;21.67;;;13.38;;
72524;SDS011;60547;48.502;8.996;2023-02-12T02:09:54;22.67;;;12.65;;
72524;SDS011;60547;48.502;8.996;2023-02-12T02:12:21;20.63;;;12.10;;
72524;SDS011;60547;48.502;8.996;2023-02-12T02:15:07;19.73;;;12.77;;
72524;SDS011;60547;48.502;8.996;2023-02-12T02:20:26;21.15;;;13.77;;
72524;SDS011;60547;48.502;8.996;2023-02-12T02:28:53;22.98;;;12.60;;
72524;SDS011;60547;48.502;8.996;2023-02-12T02:36:56;23.38;;;13.23;;
72524;SDS011;60547;48.502;8.996;2023-02-12T02:39:27;19.73;;;12.18;;
72524;SDS011;60547;48.502;8.996;2023-02-12T02:42:03;23.17;;;14.27;;
72524;SDS011;60547;48.502;8.996;2023-02-12T02:44:41;24.83;;;13.85;;
72524;SDS011;60547;48.502;8.996;2023-02-12T02:47:14;20.65;;;13.85;;
72524;SDS011;60547;48.502;8.996;2023-02-12T02:49:44;23.88;;;13.32;;
72524;SDS011;60547;48.502;8.996;2023-02-12T02:52:19;23.25;;;14.05;;
72524;SDS011;60547;48.502;8.996;2023-02-12T02:54:49;25.08;;;14.15;;
72524;SDS011;60547;48.502;8.996;2023-02-12T02:57:29;24.77;;;13.90;;
72524;SDS011;60547;48.502;8.996;2023-02-12T03:00:12;23.27;;;14.35;;
72524;SDS011;60547;48.502;8.996;2023-02-12T03:02:44;24.02;;;14.05;;
72524;SDS011;60547;48.502;8.996;2023-02-12T03:05:31;25.60;;;13.40;;
72524;SDS011;60547;48.502;8.996;2023-02-12T03:10:35;22.33;;;14.80;;
72524;SDS011;60547;48.502;8.996;2023-02-12T03:13:19;21.15;;;13.15;;
72524;SDS011;60547;48.502;8.996;2023-02-12T03:18:24;25.98;;;14.00;;
72524;SDS011;60547;48.502;8.996;2023-02-12T03:20:59;19.77;;;13.07;;
72524;SDS011;60547;48.502;8.996;2023-02-12T03:23:31;23.75;;;13.30;;
72524;SDS011;60547;48.502;8.996;2023-02-12T03:26:08;22.58;;;13.13;;
72524;SDS011;60547;48.502;8.996;2023-02-12T03:28:37;23.45;;;13.98;;
72524;SDS011;60547;48.502;8.996;2023-02-12T03:36:53;21.75;;;11.95;;
72524;SDS011;60547;48.502;8.996;2023-02-12T03:45:09;25.20;;;13.43;;
72524;SDS011;60547;48.502;8.996;2023-02-12T03:50:14;24.65;;;14.45;;
72524;SDS011;60547;48.502;8.996;2023-02-12T03:52:45;25.30;;;15.32;;
72524;SDS011;60547;48.502;8.996;2023-02-12T03:55:13;22.20;;;13.25;;
72524;SDS011;60547;48.502;8.996;2023-02-12T03:57:42;20.83;;;13.57;;
72524;SDS011;60547;48.502;8.996;2023-02-12T04:00:12;18.95;;;12.60;;
72524;SDS011;60547;48.502;8.996;2023-02-12T04:02:43;23.80;;;14.00;;
72524;SDS011;60547;48.502;8.996;2023-02-12T04:05:19;22.63;;;13.77;;
72524;SDS011;60547;48.502;8.996;2023-02-12T04:07:47;21.92;;;13.65;;
72524;SDS011;60547;48.502;8.996;2023-02-12T04:10:14;22.38;;;12.52;;
72524;SDS011;60547;48.502;8.996;2023-02-12T04:15:29;22.25;;;12.57;;
72524;SDS011;60547;48.502;8.996;2023-02-12T04:21:33;23.42;;;13.30;;
72524;SDS011;60547;48.502;8.996;2023-02-12T04:23:46;20.67;;;12.65;;
72524;SDS011;60547;48.502;8.996;2023-02-12T04:26:38;22.25;;;12.85;;
72524;SDS011;60547;48.502;8.996;2023-02-12T04:29:25;23.23;;;13.55;;
72524;SDS011;60547;48.502;8.996;2023-02-12T04:37:21;21.40;;;14.13;;
72524;SDS011;60547;48.502;8.996;2023-02-12T04:39:52;22.85;;;13.48;;
72524;SDS011;60547;48.502;8.996;2023-02-12T04:42:19;20.60;;;13.43;;
72524;SDS011;60547;48.502;8.996;2023-02-12T04:44:45;19.92;;;13.30;;
72524;SDS011;60547;48.502;8.996;2023-02-12T04:47:11;22.13;;;13.98;;
72524;SDS011;60547;48.502;8.996;2023-02-12T04:49:41;20.88;;;12.82;;
72524;SDS011;60547;48.502;8.996;2023-02-12T04:52:07;25.73;;;14.27;;
72524;SDS011;60547;48.502;8.996;2023-02-12T04:54:33;25.02;;;13.40;;
72524;SDS011;60547;48.502;8.996;2023-02-12T04:56:59;20.92;;;13.18;;
72524;SDS011;60547;48.502;8.996;2023-02-12T04:59:25;19.60;;;13.13;;
72524;SDS011;60547;48.502;8.996;2023-02-12T05:01:50;20.63;;;13.55;;
72524;SDS011;60547;48.502;8.996;2023-02-12T05:04:16;22.88;;;14.20;;
72524;SDS011;60547;48.502;8.996;2023-02-12T05:06:42;24.83;;;14.77;;
72524;SDS011;60547;48.502;8.996;2023-02-12T05:09:09;24.33;;;14.00;;
72524;SDS011;60547;48.502;8.996;2023-02-12T05:11:38;21.45;;;12.98;;
72524;SDS011;60547;48.502;8.996;2023-02-12T05:14:04;24.42;;;13.52;;
72524;SDS011;60547;48.502;8.996;2023-02-12T05:16:29;21.33;;;12.23;;
72524;SDS011;60547;48.502;8.996;2023-02-12T05:18:55;19.55;;;12.95;;
72524;SDS011;60547;48.502;8.996;2023-02-12T05:21:21;23.30;;;12.85;;
72524;SDS011;60547;48.502;8.996;2023-02-12T05:23:47;22.63;;;13.30;;
72524;SDS011;60547;48.502;8.996;2023-02-12T05:26:13;24.63;;;13.20;;
72524;SDS011;60547;48.502;8.996;2023-02-12T05:28:41;24.42;;;13.43;;
72524;SDS011;60547;48.502;8.996;2023-02-12T05:31:07;22.10;;;13.55;;
72524;SDS011;60547;48.502;8.996;2023-02-12T05:33:35;23.45;;;14.25;;
72524;SDS011;60547;48.502;8.996;2023-02-12T05:36:08;22.20;;;12.60;;
72524;SDS011;60547;48.502;8.996;2023-02-12T05:38:35;20.92;;;12.88;;
72524;SDS011;60547;48.502;8.996;2023-02-12T05:41:02;21.75;;;12.80;;
72524;SDS011;60547;48.502;8.996;2023-02-12T05:43:39;23.02;;;13.02;;
72524;SDS011;60547;48.502;8.996;2023-02-12T05:46:05;20.92;;;13.07;;
72524;SDS011;60547;48.502;8.996;2023-02-12T05:48:31;24.33;;;14.10;;
72524;SDS011;60547;48.502;8.996;2023-02-12T05:51:04;28.50;;;14.52;;
72524;SDS011;60547;48.502;8.996;2023-02-12T05:53:32;27.10;;;13.77;;
72524;SDS011;60547;48.502;8.996;2023-02-12T05:56:08;36.25;;;22.42;;
72524;SDS011;60547;48.502;8.996;2023-02-12T05:58:35;33.92;;;20.50;;
72524;SDS011;60547;48.502;8.996;2023-02-12T06:01:00;27.80;;;15.50;;
72524;SDS011;60547;48.502;8.996;2023-02-12T06:03:26;26.88;;;15.43;;
72524;SDS011;60547;48.502;8.996;2023-02-12T06:05:51;21.58;;;14.13;;
72524;SDS011;60547;48.502;8.996;2023-02-12T06:08:17;24.55;;;12.48;;
72524;SDS011;60547;48.502;8.996;2023-02-12T06:10:42;22.55;;;13.15;;
72524;SDS011;60547;48.502;8.996;2023-02-12T06:13:08;21.75;;;12.60;;
72524;SDS011;60547;48.502;8.996;2023-02-12T06:15:36;24.17;;;13.07;;
72524;SDS011;60547;48.502;8.996;2023-02-12T06:18:02;24.13;;;13.70;;
72524;SDS011;60547;48.502;8.996;2023-02-12T06:20:28;24.42;;;14.32;;
72524;SDS011;60547;48.502;8.996;2023-02-12T06:22:53;26.50;;;13.80;;
72524;SDS011;60547;48.502;8.996;2023-02-12T06:25:19;19.52;;;12.85;;
72524;SDS011;60547;48.502;8.996;2023-02-12T06:27:45;23.63;;;14.50;;
72524;SDS011;60547;48.502;8.996;2023-02-12T06:30:10;22.15;;;13.65;;
72524;SDS011;60547;48.502;8.996;2023-02-12T06:32:36;23.25;;;15.25;;
72524;SDS011;60547;48.502;8.996;2023-02-12T06:35:02;23.13;;;14.48;;
72524;SDS011;60547;48.502;8.996;2023-02-12T06:37:27;22.38;;;14.85;;
72524;SDS011;60547;48.502;8.996;2023-02-12T06:39:53;22.27;;;13.18;;
72524;SDS011;60547;48.502;8.996;2023-02-12T06:42:19;19.48;;;13.02;;
72524;SDS011;60547;48.502;8.996;2023-02-12T06:44:44;22.48;;;14.75;;
72524;SDS011;60547;48.502;8.996;2023-02-12T06:47:10;23.05;;;13.70;;
72524;SDS011;60547;48.502;8.996;2023-02-12T06:49:36;20.48;;;12.85;;
72524;SDS011;60547;48.502;8.996;2023-02-12T06:52:02;25.08;;;13.93;;
72524;SDS011;60547;48.502;8.996;2023-02-12T06:54:27;24.90;;;13.98;;
72524;SDS011;60547;48.502;8.996;2023-02-12T06:56:53;20.60;;;12.10;;
72524;SDS011;60547;48.502;8.996;2023-02-12T06:59:18;22.65;;;13.15;;
72524;SDS011;60547;48.502;8.996;2023-02-12T07:01:44;21.88;;;13.95;;
72524;SDS011;60547;48.502;8.996;2023-02-12T07:04:09;21.05;;;13.48;;
72524;SDS011;60547;48.502;8.996;2023-02-12T07:06:35;26.15;;;15.80;;
72524;SDS011;60547;48.502;8.996;2023-02-12T07:09:02;25.88;;;15.80;;
72524;SDS011;60547;48.502;8.996;2023-02-12T07:11:30;24.15;;;14.35;;
72524;SDS011;60547;48.502;8.996;2023-02-12T07:13:58;25.23;;;14.70;;
72524;SDS011;60547;48.502;8.996;2023-02-12T07:16:24;24.17;;;15.13;;
72524;SDS011;60547;48.502;8.996;2023-02-12T07:18:50;28.83;;;15.65;;
72524;SDS011;60547;48.502;8.996;2023-02-12T07:21:16;25.13;;;16.35;;
72524;SDS011;60547;48.502;8.996;2023-02-12T07:23:45;25.38;;;13.52;;
72524;SDS011;60547;48.502;8.996;2023-02-12T07:26:15;27.92;;;17.33;;
72524;SDS011;60547;48.502;8.996;2023-02-12T07:28:41;24.60;;;16.38;;
72524;SDS011;60547;48.502;8.996;2023-02-12T07:31:08;37.20;;;22.50;;
72524;SDS011;60547;48.502;8.996;2023-02-12T07:33:38;37.30;;;25.75;;
72524;SDS011;60547;48.502;8.996;2023-02-12T07:36:04;32.03;;;20.58;;
72524;SDS011;60547;48.502;8.996;2023-02-12T07:38:35;24.15;;;14.98;;
72524;SDS011;60547;48.502;8.996;2023-02-12T07:43:33;22.85;;;13.93;;
72524;SDS011;60547;48.502;8.996;2023-02-12T07:46:09;23.50;;;14.48;;
72524;SDS011;60547;48.502;8.996;2023-02-12T07:48:37;50.03;;;37.70;;
72524;SDS011;60547;48.502;8.996;2023-02-12T07:51:03;55.00;;;37.15;;
72524;SDS011;60547;48.502;8.996;2023-02-12T07:53:30;38.08;;;26.75;;
72524;SDS011;60547;48.502;8.996;2023-02-12T07:56:03;26.60;;;16.05;;
72524;SDS011;60547;48.502;8.996;2023-02-12T07:58:31;22.17;;;15.07;;
72524;SDS011;60547;48.502;8.996;2023-02-12T08:00:57;24.63;;;14.32;;
72524;SDS011;60547;48.502;8.996;2023-02-12T08:03:22;24.73;;;15.63;;
72524;SDS011;60547;48.502;8.996;2023-02-12T08:05:48;25.38;;;15.77;;
72524;SDS011;60547;48.502;8.996;2023-02-12T08:08:13;26.58;;;14.40;;
72524;SDS011;60547;48.502;8.996;2023-02-12T08:10:39;28.67;;;15.90;;
72524;SDS011;60547;48.502;8.996;2023-02-12T08:13:05;26.23;;;16.05;;
72524;SDS011;60547;48.502;8.996;2023-02-12T08:15:30;27.42;;;17.73;;
72524;SDS011;60547;48.502;8.996;2023-02-12T08:17:56;27.17;;;15.35;;
72524;SDS011;60547;48.502;8.996;2023-02-12T08:20:21;31.05;;;19.17;;
72524;SDS011;60547;48.502;8.996;2023-02-12T08:22:47;25.20;;;16.35;;
72524;SDS011;60547;48.502;8.996;2023-02-12T08:25:13;24.48;;;15.43;;
72524;SDS011;60547;48.502;8.996;2023-02-12T08:27:40;25.40;;;15.95;;
72524;SDS011;60547;48.502;8.996;2023-02-12T08:30:06;24.27;;;14.88;;
72524;SDS011;60547;48.502;8.996;2023-02-12T08:32:32;23.77;;;15.18;;
72524;SDS011;60547;48.502;8.996;2023-02-12T08:34:58;24.80;;;14.85;;
72524;SDS011;60547;48.502;8.996;2023-02-12T08:37:23;23.58;;;13.93;;
72524;SDS011;60547;48.502;8.996;2023-02-12T08:39:49;22.52;;;14.75;;
72524;SDS011;60547;48.502;8.996;2023-02-12T08:42:14;25.13;;;14.93;;
72524;SDS011;60547;48.502;8.996;2023-02-12T08:44:41;27.95;;;16.42;;
72524;SDS011;60547;48.502;8.996;2023-02-12T08:47:07;26.42;;;16.15;;
72524;SDS011;60547;48.502;8.996;2023-02-12T08:49:34;21.92;;;14.75;;
72524;SDS011;60547;48.502;8.996;2023-02-12T08:52:00;28.02;;;15.05;;
72524;SDS011;60547;48.502;8.996;2023-02-12T08:54:28;24.73;;;14.20;;
72524;SDS011;60547;48.502;8.996;2023-02-12T08:56:55;22.08;;;13.77;;
72524;SDS011;60547;48.502;8.996;2023-02-12T08:59:22;26.40;;;16.95;;
72524;SDS011;60547;48.502;8.996;2023-02-12T09:01:50;29.63;;;16.40;;
72524;SDS011;60547;48.502;8.996;2023-02-12T09:04:26;25.52;;;15.02;;
72524;SDS011;60547;48.502;8.996;2023-02-12T09:06:52;27.55;;;17.77;;
72524;SDS011;60547;48.502;8.996;2023-02-12T09:09:19;26.83;;;15.18;;
72524;SDS011;60547;48.502;8.996;2023-02-12T09:11:45;29.85;;;17.15;;
72524;SDS011;60547;48.502;8.996;2023-02-12T09:14:12;28.38;;;16.90;;
72524;SDS011;60547;48.502;8.996;2023-02-12T09:16:39;29.20;;;17.17;;
72524;SDS011;60547;48.502;8.996;2023-02-12T09:19:07;24.83;;;17.25;;
72524;SDS011;60547;48.502;8.996;2023-02-12T09:21:35;29.65;;;17.15;;
72524;SDS011;60547;48.502;8.996;2023-02-12T09:24:01;27.75;;;17.73;;
72524;SDS011;60547;48.502;8.996;2023-02-12T09:26:27;26.65;;;16.48;;
72524;SDS011;60547;48.502;8.996;2023-02-12T09:28:53;24.65;;;15.10;;
72524;SDS011;60547;48.502;8.996;2023-02-12T09:31:23;23.33;;;15.32;;
72524;SDS011;60547;48.502;8.996;2023-02-12T09:33:51;28.38;;;18.10;;
72524;SDS011;60547;48.502;8.996;2023-02-12T09:36:18;32.40;;;20.40;;
72524;SDS011;60547;48.502;8.996;2023-02-12T09:38:44;36.53;;;20.13;;
72524;SDS011;60547;48.502;8.996;2023-02-12T09:49:07;31.35;;;16.55;;
72524;SDS011;60547;48.502;8.996;2023-02-12T09:51:44;26.90;;;16.65;;
72524;SDS011;60547;48.502;8.996;2023-02-12T09:54:14;27.35;;;17.08;;
72524;SDS011;60547;48.502;8.996;2023-02-12T09:56:43;24.65;;;16.23;;
72524;SDS011;60547;48.502;8.996;2023-02-12T09:59:15;26.98;;;16.73;;
72524;SDS011;60547;48.502;8.996;2023-02-12T10:01:52;37.13;;;22.20;;
72524;SDS011;60547;48.502;8.996;2023-02-12T10:04:17;32.30;;;19.13;;
72524;SDS011;60547;48.502;8.996;2023-02-12T10:06:46;32.30;;;19.58;;
72524;SDS011;60547;48.502;8.996;2023-02-12T10:12:46;30.20;;;18.23;;
72524;SDS011;60547;48.502;8.996;2023-02-12T10:15:16;29.23;;;17.20;;
72524;SDS011;60547;48.502;8.996;2023-02-12T10:20:32;29.75;;;17.85;;
72524;SDS011;60547;48.502;8.996;2023-02-12T10:23:09;30.40;;;17.48;;
72524;SDS011;60547;48.502;8.996;2023-02-12T10:25:55;26.85;;;16.75;;
72524;SDS011;60547;48.502;8.996;2023-02-12T10:28:33;28.27;;;17.42;;
72524;SDS011;60547;48.502;8.996;2023-02-12T10:33:38;27.30;;;16.50;;
72524;SDS011;60547;48.502;8.996;2023-02-12T10:36:18;30.90;;;17.77;;
72524;SDS011;60547;48.502;8.996;2023-02-12T10:38:57;29.60;;;16.17;;
72524;SDS011;60547;48.502;8.996;2023-02-12T10:41:42;27.65;;;16.77;;
72524;SDS011;60547;48.502;8.996;2023-02-12T10:44:13;26.15;;;16.38;;
72524;SDS011;60547;48.502;8.996;2023-02-12T10:46:38;26.58;;;16.45;;
72524;SDS011;60547;48.502;8.996;2023-02-12T10:49:04;28.17;;;16.25;;
72524;SDS011;60547;48.502;8.996;2023-02-12T10:56:57;20.05;;;13.07;;
72524;SDS011;60547;48.502;8.996;2023-02-12T10:59:24;19.05;;;11.68;;
72524;SDS011;60547;48.502;8.996;2023-02-12T11:01:49;13.70;;;7.85;;
72524;SDS011;60547;48.502;8.996;2023-02-12T11:04:28;11.63;;;6.03;;
72524;SDS011;60547;48.502;8.996;2023-02-12T11:09:33;8.38;;;4.63;;
72524;SDS011;60547;48.502;8.996;2023-02-12T11:14:56;9.98;;;5.00;;
72524;SDS011;60547;48.502;8.996;2023-02-12T11:17:30;8.98;;;4.78;;
72524;SDS011;60547;48.502;8.996;2023-02-12T11:23:00;8.48;;;4.25;;
72524;SDS011;60547;48.502;8.996;2023-02-12T11:25:28;10.10;;;5.47;;
72524;SDS011;60547;48.502;8.996;2023-02-12T11:30:26;9.98;;;4.97;;
72524;SDS011;60547;48.502;8.996;2023-02-12T11:32:52;11.10;;;5.65;;
72524;SDS011;60547;48.502;8.996;2023-02-12T11:35:19;10.13;;;5.28;;
72524;SDS011;60547;48.502;8.996;2023-02-12T11:37:53;10.95;;;5.38;;
72524;SDS011;60547;48.502;8.996;2023-02-12T11:42:55;10.35;;;5.80;;
72524;SDS011;60547;48.502;8.996;2023-02-12T11:45:26;10.90;;;5.28;;
72524;SDS011;60547;48.502;8.996;2023-02-12T11:47:56;10.93;;;5.80;;
72524;SDS011;60547;48.502;8.996;2023-02-12T11:50:29;8.90;;;5.50;;
72524;SDS011;60547;48.502;8.996;2023-02-12T11:52:58;10.95;;;5.60;;
72524;SDS011;60547;48.502;8.996;2023-02-12T11:55:32;12.10;;;6.30;;
72524;SDS011;60547;48.502;8.996;2023-02-12T12:03:38;9.75;;;5.45;;
72524;SDS011;60547;48.502;8.996;2023-02-12T12:14:12;10.23;;;4.93;;
72524;SDS011;60547;48.502;8.996;2023-02-12T12:16:51;8.07;;;4.10;;
72524;SDS011;60547;48.502;8.996;2023-02-12T12:19:46;8.75;;;4.63;;
72524;SDS011;60547;48.502;8.996;2023-02-12T12:28:00;7.65;;;4.00;;
72524;SDS011;60547;48.502;8.996;2023-02-12T12:31:11;7.28;;;4.05;;
72524;SDS011;60547;48.502;8.996;2023-02-12T12:49:35;6.90;;;4.05;;
72524;SDS011;60547;48.502;8.996;2023-02-12T13:14:54;8.45;;;4.45;;
72524;SDS011;60547;48.502;8.996;2023-02-12T13:20:21;5.57;;;3.28;;
72524;SDS011;60547;48.502;8.996;2023-02-12T13:23:13;8.30;;;4.88;;
72524;SDS011;60547;48.502;8.996;2023-02-12T13:28:39;6.65;;;3.55;;
72524;SDS011;60547;48.502;8.996;2023-02-12T13:31:08;6.85;;;4.00;;
72524;SDS011;60547;48.502;8.996;2023-02-12T13:33:41;7.45;;;3.58;;
72524;SDS011;60547;48.502;8.996;2023-02-12T13:36:14;6.55;;;3.22;;
72524;SDS011;60547;48.502;8.996;2023-02-12T13:38:45;5.18;;;2.83;;
72524;SDS011;60547;48.502;8.996;2023-02-12T13:41:16;5.55;;;2.90;;
72524;SDS011;60547;48.502;8.996;2023-02-12T13:43:54;5.35;;;2.95;;
72524;SDS011;60547;48.502;8.996;2023-02-12T13:52:31;4.57;;;2.50;;
72524;SDS011;60547;48.502;8.996;2023-02-12T13:55:13;5.15;;;2.75;;
72524;SDS011;60547;48.502;8.996;2023-02-12T14:03:15;6.40;;;3.20;;
72524;SDS011;60547;48.502;8.996;2023-02-12T14:05:47;5.28;;;3.20;;
72524;SDS011;60547;48.502;8.996;2023-02-12T14:08:26;6.28;;;2.92;;
72524;SDS011;60547;48.502;8.996;2023-02-12T14:11:04;6.40;;;2.95;;
72524;SDS011;60547;48.502;8.996;2023-02-12T14:13:46;5.43;;;2.90;;
72524;SDS011;60547;48.502;8.996;2023-02-12T14:16:23;5.85;;;2.63;;
72524;SDS011;60547;48.502;8.996;2023-02-12T14:22:09;4.90;;;2.88;;
72524;SDS011;60547;48.502;8.996;2023-02-12T14:27:03;7.95;;;3.08;;
72524;SDS011;60547;48.502;8.996;2023-02-12T14:29:39;6.22;;;2.83;;
72524;SDS011;60547;48.502;8.996;2023-02-12T14:32:21;6.22;;;2.83;;
72524;SDS011;60547;48.502;8.996;2023-02-12T14:38:55;5.82;;;2.78;;
72524;SDS011;60547;48.502;8.996;2023-02-12T14:41:13;6.13;;;2.80;;
72524;SDS011;60547;48.502;8.996;2023-02-12T14:49:19;5.18;;;2.67;;
72524;SDS011;60547;48.502;8.996;2023-02-12T14:54:44;5.93;;;3.33;;
72524;SDS011;60547;48.502;8.996;2023-02-12T14:57:34;5.50;;;2.70;;
72524;SDS011;60547;48.502;8.996;2023-02-12T15:02:52;5.93;;;2.88;;
72524;SDS011;60547;48.502;8.996;2023-02-12T15:07:57;6.00;;;3.00;;
72524;SDS011;60547;48.502;8.996;2023-02-12T15:10:34;6.68;;;3.42;;
72524;SDS011;60547;48.502;8.996;2023-02-12T15:15:52;5.57;;;3.05;;
72524;SDS011;60547;48.502;8.996;2023-02-12T15:18:28;6.10;;;3.10;;
72524;SDS011;60547;48.502;8.996;2023-02-12T15:21:19;6.60;;;3.03;;
72524;SDS011;60547;48.502;8.996;2023-02-12T15:26:33;6.65;;;3.10;;
72524;SDS011;60547;48.502;8.996;2023-02-12T15:29:05;5.75;;;3.20;;
72524;SDS011;60547;48.502;8.996;2023-02-12T15:31:32;7.25;;;3.20;;
72524;SDS011;60547;48.502;8.996;2023-02-12T15:34:00;6.75;;;3.25;;
72524;SDS011;60547;48.502;8.996;2023-02-12T15:36:28;5.15;;;2.88;;
72524;SDS011;60547;48.502;8.996;2023-02-12T15:39:02;6.97;;;3.38;;
72524;SDS011;60547;48.502;8.996;2023-02-12T15:41:38;6.63;;;3.13;;
72524;SDS011;60547;48.502;8.996;2023-02-12T15:47:00;6.45;;;2.97;;
72524;SDS011;60547;48.502;8.996;2023-02-12T15:52:25;6.18;;;3.13;;
72524;SDS011;60547;48.502;8.996;2023-02-12T15:54:57;5.38;;;3.05;;
72524;SDS011;60547;48.502;8.996;2023-02-12T15:57:23;6.07;;;3.10;;
72524;SDS011;60547;48.502;8.996;2023-02-12T15:59:50;5.68;;;3.28;;
72524;SDS011;60547;48.502;8.996;2023-02-12T16:02:27;9.32;;;6.25;;
72524;SDS011;60547;48.502;8.996;2023-02-12T16:04:57;4.80;;;2.83;;
72524;SDS011;60547;48.502;8.996;2023-02-12T16:07:24;6.93;;;3.30;;
72524;SDS011;60547;48.502;8.996;2023-02-12T16:09:53;6.25;;;3.20;;
72524;SDS011;60547;48.502;8.996;2023-02-12T16:12:23;7.55;;;4.45;;
72524;SDS011;60547;48.502;8.996;2023-02-12T16:14:55;6.85;;;3.60;;
72524;SDS011;60547;48.502;8.996;2023-02-12T16:22:38;7.35;;;3.80;;
72524;SDS011;60547;48.502;8.996;2023-02-12T16:25:24;5.70;;;3.47;;
72524;SDS011;60547;48.502;8.996;2023-02-12T16:28:02;5.28;;;3.05;;
72524;SDS011;60547;48.502;8.996;2023-02-12T16:30:31;6.07;;;3.20;;
72524;SDS011;60547;48.502;8.996;2023-02-12T16:38:55;5.70;;;3.05;;
72524;SDS011;60547;48.502;8.996;2023-02-12T16:41:28;5.28;;;3.30;;
72524;SDS011;60547;48.502;8.996;2023-02-12T16:46:29;4.95;;;2.85;;
72524;SDS011;60547;48.502;8.996;2023-02-12T16:48:57;7.40;;;4.45;;
72524;SDS011;60547;48.502;8.996;2023-02-12T16:53:52;6.13;;;3.30;;
72524;SDS011;60547;48.502;8.996;2023-02-12T16:56:22;6.10;;;2.92;;
72524;SDS011;60547;48.502;8.996;2023-02-12T16:58:50;5.50;;;3.20;;
72524;SDS011;60547;48.502;8.996;2023-02-12T17:01:21;6.63;;;3.42;;
72524;SDS011;60547;48.502;8.996;2023-02-12T17:03:50;7.47;;;3.90;;
72524;SDS011;60547;48.502;8.996;2023-02-12T17:06:20;5.93;;;3.30;;
72524;SDS011;60547;48.502;8.996;2023-02-12T17:08:47;7.45;;;4.15;;
72524;SDS011;60547;48.502;8.996;2023-02-12T17:11:13;13.02;;;6.70;;
72524;SDS011;60547;48.502;8.996;2023-02-12T17:13:42;8.02;;;4.60;;
72524;SDS011;60547;48.502;8.996;2023-02-12T17:16:09;8.82;;;4.78;;
72524;SDS011;60547;48.502;8.996;2023-02-12T17:18:34;8.55;;;4.20;;
72524;SDS011;60547;48.502;8.996;2023-02-12T17:21:34;8.68;;;4.95;;
72524;SDS011;60547;48.502;8.996;2023-02-12T17:23:53;9.38;;;5.45;;
72524;SDS011;60547;48.502;8.996;2023-02-12T17:26:20;7.97;;;4.63;;
72524;SDS011;60547;48.502;8.996;2023-02-12T17:28:46;8.88;;;4.38;;
72524;SDS011;60547;48.502;8.996;2023-02-12T17:31:12;11.23;;;5.55;;
72524;SDS011;60547;48.502;8.996;2023-02-12T17:33:38;14.68;;;8.10;;
72524;SDS011;60547;48.502;8.996;2023-02-12T17:36:03;19.23;;;10.77;;
72524;SDS011;60547;48.502;8.996;2023-02-12T17:38:29;17.00;;;8.93;;
72524;SDS011;60547;48.502;8.996;2023-02-12T17:40:55;15.07;;;7.00;;
72524;SDS011;60547;48.502;8.996;2023-02-12T17:43:20;13.45;;;6.28;;
72524;SDS011;60547;48.502;8.996;2023-02-12T17:45:46;12.35;;;6.53;;
72524;SDS011;60547;48.502;8.996;2023-02-12T17:48:12;5.63;;;3.03;;
72524;SDS011;60547;48.502;8.996;2023-02-12T17:50:39;6.90;;;3.58;;
72524;SDS011;60547;48.502;8.996;2023-02-12T17:53:05;7.07;;;4.00;;
72524;SDS011;60547;48.502;8.996;2023-02-12T17:55:31;6.63;;;3.67;;
72524;SDS011;60547;48.502;8.996;2023-02-12T17:57:57;11.38;;;6.60;;
72524;SDS011;60547;48.502;8.996;2023-02-12T18:00:23;12.05;;;6.70;;
72524;SDS011;60547;48.502;8.996;2023-02-12T18:02:49;19.50;;;11.05;;
72524;SDS011;60547;48.502;8.996;2023-02-12T18:05:14;22.55;;;15.23;;
72524;SDS011;60547;48.502;8.996;2023-02-12T18:07:40;23.63;;;13.70;;
72524;SDS011;60547;48.502;8.996;2023-02-12T18:10:06;24.42;;;14.93;;
72524;SDS011;60547;48.502;8.996;2023-02-12T18:12:32;18.88;;;12.52;;
72524;SDS011;60547;48.502;8.996;2023-02-12T18:14:59;19.77;;;12.25;;